sensor_id;sensor_type;location;lat;lon;timestamp;P1;durP1;ratioP1;P2;durP2;ratioP2
52166;SDS011;38149;52.666;6.428;2023-02-15T00:01:54;0.20;;;0.20;;
52166;SDS011;38149;52.666;6.428;2023-02-15T00:04:21;0.30;;;0.30;;
52166;SDS011;38149;52.666;6.428;2023-02-15T00:06:49;0.22;;;0.22;;
52166;SDS011;38149;52.666;6.428;2023-02-15T00:09:15;0.22;;;0.22;;
52166;SDS011;38149;52.666;6.428;2023-02-15T00:11:41;0.20;;;0.20;;
52166;SDS011;38149;52.666;6.428;2023-02-15T00:14:11;0.20;;;0.20;;
52166;SDS011;38149;52.666;6.428;2023-02-15T00:16:40;0.30;;;0.30;;
52166;SDS011;38149;52.666;6.428;2023-02-15T00:19:08;0.20;;;0.20;;
52166;SDS011;38149;52.666;6.428;2023-02-15T00:21:35;0.20;;;0.20;;
52166;SDS011;38149;52.666;6.428;2023-02-15T00:24:03;0.20;;;0.20;;
52166;SDS011;38149;52.666;6.428;2023-02-15T00:26:31;0.25;;;0.25;;
52166;SDS011;38149;52.666;6.428;2023-02-15T00:28:57;0.28;;;0.28;;
52166;SDS011;38149;52.666;6.428;2023-02-15T00:31:24;0.20;;;0.20;;
52166;SDS011;38149;52.666;6.428;2023-02-15T00:33:50;0.30;;;0.30;;
52166;SDS011;38149;52.666;6.428;2023-02-15T00:36:16;0.28;;;0.28;;
52166;SDS011;38149;52.666;6.428;2023-02-15T00:38:43;0.20;;;0.20;;
52166;SDS011;38149;52.666;6.428;2023-02-15T00:41:09;0.30;;;0.30;;
52166;SDS011;38149;52.666;6.428;2023-02-15T00:43:35;0.20;;;0.20;;
52166;SDS011;38149;52.666;6.428;2023-02-15T00:46:02;0.30;;;0.30;;
52166;SDS011;38149;52.666;6.428;2023-02-15T00:48:29;0.30;;;0.30;;
52166;SDS011;38149;52.666;6.428;2023-02-15T00:50:57;0.20;;;0.20;;
52166;SDS011;38149;52.666;6.428;2023-02-15T00:53:24;0.20;;;0.20;;
52166;SDS011;38149;52.666;6.428;2023-02-15T00:55:50;0.30;;;0.30;;
52166;SDS011;38149;52.666;6.428;2023-02-15T00:58:17;0.20;;;0.20;;
52166;SDS011;38149;52.666;6.428;2023-02-15T01:00:44;0.20;;;0.20;;
52166;SDS011;38149;52.666;6.428;2023-02-15T01:03:11;0.30;;;0.30;;
52166;SDS011;38149;52.666;6.428;2023-02-15T01:05:38;0.30;;;0.30;;
52166;SDS011;38149;52.666;6.428;2023-02-15T01:08:04;0.30;;;0.30;;
52166;SDS011;38149;52.666;6.428;2023-02-15T01:10:31;0.20;;;0.20;;
52166;SDS011;38149;52.666;6.428;2023-02-15T01:12:58;0.30;;;0.30;;
52166;SDS011;38149;52.666;6.428;2023-02-15T01:15:24;0.30;;;0.30;;
52166;SDS011;38149;52.666;6.428;2023-02-15T01:17:50;0.28;;;0.28;;
52166;SDS011;38149;52.666;6.428;2023-02-15T01:20:22;0.30;;;0.30;;
52166;SDS011;38149;52.666;6.428;2023-02-15T01:22:49;0.25;;;0.25;;
52166;SDS011;38149;52.666;6.428;2023-02-15T01:25:16;0.30;;;0.30;;
52166;SDS011;38149;52.666;6.428;2023-02-15T01:27:43;0.20;;;0.20;;
52166;SDS011;38149;52.666;6.428;2023-02-15T01:30:10;0.25;;;0.25;;
52166;SDS011;38149;52.666;6.428;2023-02-15T01:32:36;0.22;;;0.22;;
52166;SDS011;38149;52.666;6.428;2023-02-15T01:35:02;0.30;;;0.30;;
52166;SDS011;38149;52.666;6.428;2023-02-15T01:37:32;0.30;;;0.30;;
52166;SDS011;38149;52.666;6.428;2023-02-15T01:39:59;0.28;;;0.28;;
52166;SDS011;38149;52.666;6.428;2023-02-15T01:42:26;0.20;;;0.20;;
52166;SDS011;38149;52.666;6.428;2023-02-15T01:53:02;0.28;;;0.28;;
52166;SDS011;38149;52.666;6.428;2023-02-15T01:55:34;0.30;;;0.30;;
52166;SDS011;38149;52.666;6.428;2023-02-15T01:58:04;0.30;;;0.30;;
52166;SDS011;38149;52.666;6.428;2023-02-15T02:00:31;0.30;;;0.30;;
52166;SDS011;38149;52.666;6.428;2023-02-15T02:02:58;0.30;;;0.30;;
52166;SDS011;38149;52.666;6.428;2023-02-15T02:05:24;0.30;;;0.30;;
52166;SDS011;38149;52.666;6.428;2023-02-15T02:07:51;0.30;;;0.30;;
52166;SDS011;38149;52.666;6.428;2023-02-15T02:10:20;0.30;;;0.30;;
52166;SDS011;38149;52.666;6.428;2023-02-15T02:12:48;0.30;;;0.30;;
52166;SDS011;38149;52.666;6.428;2023-02-15T02:15:17;0.30;;;0.30;;
52166;SDS011;38149;52.666;6.428;2023-02-15T02:17:53;0.22;;;0.22;;
52166;SDS011;38149;52.666;6.428;2023-02-15T02:20:33;0.30;;;0.30;;
52166;SDS011;38149;52.666;6.428;2023-02-15T02:23:24;0.30;;;0.30;;
52166;SDS011;38149;52.666;6.428;2023-02-15T02:26:22;0.30;;;0.30;;
52166;SDS011;38149;52.666;6.428;2023-02-15T02:29:05;0.30;;;0.30;;
52166;SDS011;38149;52.666;6.428;2023-02-15T02:31:53;0.30;;;0.30;;
52166;SDS011;38149;52.666;6.428;2023-02-15T02:34:33;0.30;;;0.30;;
52166;SDS011;38149;52.666;6.428;2023-02-15T02:40:28;0.30;;;0.30;;
52166;SDS011;38149;52.666;6.428;2023-02-15T02:42:59;0.30;;;0.30;;
52166;SDS011;38149;52.666;6.428;2023-02-15T02:45:39;0.30;;;0.30;;
52166;SDS011;38149;52.666;6.428;2023-02-15T02:48:16;0.30;;;0.30;;
52166;SDS011;38149;52.666;6.428;2023-02-15T02:50:48;0.30;;;0.30;;
52166;SDS011;38149;52.666;6.428;2023-02-15T02:53:14;0.25;;;0.25;;
52166;SDS011;38149;52.666;6.428;2023-02-15T02:55:43;0.30;;;0.30;;
52166;SDS011;38149;52.666;6.428;2023-02-15T03:01:13;0.30;;;0.30;;
52166;SDS011;38149;52.666;6.428;2023-02-15T03:03:45;0.30;;;0.30;;
52166;SDS011;38149;52.666;6.428;2023-02-15T03:09:37;0.30;;;0.30;;
52166;SDS011;38149;52.666;6.428;2023-02-15T03:12:12;0.30;;;0.30;;
52166;SDS011;38149;52.666;6.428;2023-02-15T03:14:44;0.30;;;0.30;;
52166;SDS011;38149;52.666;6.428;2023-02-15T03:17:15;0.30;;;0.30;;
52166;SDS011;38149;52.666;6.428;2023-02-15T03:19:44;0.30;;;0.30;;
52166;SDS011;38149;52.666;6.428;2023-02-15T03:24:49;0.30;;;0.30;;
52166;SDS011;38149;52.666;6.428;2023-02-15T03:27:20;0.30;;;0.30;;
52166;SDS011;38149;52.666;6.428;2023-02-15T03:29:50;0.30;;;0.30;;
52166;SDS011;38149;52.666;6.428;2023-02-15T03:32:22;0.30;;;0.30;;
52166;SDS011;38149;52.666;6.428;2023-02-15T03:34:50;0.30;;;0.30;;
52166;SDS011;38149;52.666;6.428;2023-02-15T03:40:02;0.30;;;0.30;;
52166;SDS011;38149;52.666;6.428;2023-02-15T03:45:43;0.30;;;0.30;;
52166;SDS011;38149;52.666;6.428;2023-02-15T03:48:24;0.30;;;0.30;;
52166;SDS011;38149;52.666;6.428;2023-02-15T03:51:01;0.30;;;0.30;;
52166;SDS011;38149;52.666;6.428;2023-02-15T03:53:48;0.30;;;0.30;;
52166;SDS011;38149;52.666;6.428;2023-02-15T03:56:16;0.30;;;0.30;;
52166;SDS011;38149;52.666;6.428;2023-02-15T03:58:42;0.30;;;0.30;;
52166;SDS011;38149;52.666;6.428;2023-02-15T04:07:02;0.30;;;0.30;;
52166;SDS011;38149;52.666;6.428;2023-02-15T04:09:30;0.30;;;0.30;;
52166;SDS011;38149;52.666;6.428;2023-02-15T04:12:15;0.30;;;0.30;;
52166;SDS011;38149;52.666;6.428;2023-02-15T04:14:41;0.30;;;0.30;;
52166;SDS011;38149;52.666;6.428;2023-02-15T04:17:25;0.30;;;0.30;;
52166;SDS011;38149;52.666;6.428;2023-02-15T04:19:51;0.30;;;0.30;;
52166;SDS011;38149;52.666;6.428;2023-02-15T04:22:36;0.30;;;0.30;;
52166;SDS011;38149;52.666;6.428;2023-02-15T04:25:21;0.30;;;0.30;;
52166;SDS011;38149;52.666;6.428;2023-02-15T04:27:48;0.30;;;0.30;;
52166;SDS011;38149;52.666;6.428;2023-02-15T04:30:16;0.30;;;0.30;;
52166;SDS011;38149;52.666;6.428;2023-02-15T04:32:43;0.30;;;0.30;;
52166;SDS011;38149;52.666;6.428;2023-02-15T04:35:09;0.30;;;0.30;;
52166;SDS011;38149;52.666;6.428;2023-02-15T04:37:36;0.30;;;0.30;;
52166;SDS011;38149;52.666;6.428;2023-02-15T04:40:03;0.30;;;0.30;;
52166;SDS011;38149;52.666;6.428;2023-02-15T04:42:30;0.30;;;0.30;;
52166;SDS011;38149;52.666;6.428;2023-02-15T04:44:56;0.30;;;0.30;;
52166;SDS011;38149;52.666;6.428;2023-02-15T04:47:23;0.30;;;0.30;;
52166;SDS011;38149;52.666;6.428;2023-02-15T04:49:49;0.30;;;0.30;;
52166;SDS011;38149;52.666;6.428;2023-02-15T04:52:15;0.30;;;0.30;;
52166;SDS011;38149;52.666;6.428;2023-02-15T04:54:44;0.30;;;0.30;;
52166;SDS011;38149;52.666;6.428;2023-02-15T04:57:11;0.30;;;0.30;;
52166;SDS011;38149;52.666;6.428;2023-02-15T04:59:37;0.30;;;0.30;;
52166;SDS011;38149;52.666;6.428;2023-02-15T05:02:03;0.30;;;0.30;;
52166;SDS011;38149;52.666;6.428;2023-02-15T05:04:29;0.30;;;0.30;;
52166;SDS011;38149;52.666;6.428;2023-02-15T05:06:56;0.30;;;0.30;;
52166;SDS011;38149;52.666;6.428;2023-02-15T05:09:22;0.30;;;0.30;;
52166;SDS011;38149;52.666;6.428;2023-02-15T05:11:48;0.30;;;0.30;;
52166;SDS011;38149;52.666;6.428;2023-02-15T05:14:14;0.30;;;0.30;;
52166;SDS011;38149;52.666;6.428;2023-02-15T05:16:40;0.30;;;0.30;;
52166;SDS011;38149;52.666;6.428;2023-02-15T05:19:06;0.30;;;0.30;;
52166;SDS011;38149;52.666;6.428;2023-02-15T05:21:32;0.30;;;0.30;;
52166;SDS011;38149;52.666;6.428;2023-02-15T05:23:59;0.30;;;0.30;;
52166;SDS011;38149;52.666;6.428;2023-02-15T05:26:25;0.30;;;0.30;;
52166;SDS011;38149;52.666;6.428;2023-02-15T05:29:09;0.30;;;0.30;;
52166;SDS011;38149;52.666;6.428;2023-02-15T05:31:36;0.30;;;0.30;;
52166;SDS011;38149;52.666;6.428;2023-02-15T05:34:02;0.30;;;0.30;;
52166;SDS011;38149;52.666;6.428;2023-02-15T05:36:28;0.30;;;0.30;;
52166;SDS011;38149;52.666;6.428;2023-02-15T05:38:55;0.30;;;0.30;;
52166;SDS011;38149;52.666;6.428;2023-02-15T05:41:21;0.30;;;0.30;;
52166;SDS011;38149;52.666;6.428;2023-02-15T05:43:47;0.30;;;0.30;;
52166;SDS011;38149;52.666;6.428;2023-02-15T05:46:13;0.30;;;0.30;;
52166;SDS011;38149;52.666;6.428;2023-02-15T05:48:40;0.30;;;0.30;;
52166;SDS011;38149;52.666;6.428;2023-02-15T05:51:10;0.30;;;0.30;;
52166;SDS011;38149;52.666;6.428;2023-02-15T05:53:38;0.30;;;0.30;;
52166;SDS011;38149;52.666;6.428;2023-02-15T05:56:06;0.30;;;0.30;;
52166;SDS011;38149;52.666;6.428;2023-02-15T05:58:34;0.30;;;0.30;;
52166;SDS011;38149;52.666;6.428;2023-02-15T06:01:10;0.30;;;0.30;;
52166;SDS011;38149;52.666;6.428;2023-02-15T06:03:42;0.30;;;0.30;;
52166;SDS011;38149;52.666;6.428;2023-02-15T06:06:08;0.30;;;0.30;;
52166;SDS011;38149;52.666;6.428;2023-02-15T06:08:36;0.40;;;0.40;;
52166;SDS011;38149;52.666;6.428;2023-02-15T06:11:02;0.30;;;0.30;;
52166;SDS011;38149;52.666;6.428;2023-02-15T06:13:29;0.40;;;0.40;;
52166;SDS011;38149;52.666;6.428;2023-02-15T06:15:55;0.30;;;0.30;;
52166;SDS011;38149;52.666;6.428;2023-02-15T06:18:22;0.40;;;0.40;;
52166;SDS011;38149;52.666;6.428;2023-02-15T06:20:48;0.30;;;0.30;;
52166;SDS011;38149;52.666;6.428;2023-02-15T06:23:14;0.30;;;0.30;;
52166;SDS011;38149;52.666;6.428;2023-02-15T06:25:41;0.30;;;0.30;;
52166;SDS011;38149;52.666;6.428;2023-02-15T06:28:09;0.32;;;0.32;;
52166;SDS011;38149;52.666;6.428;2023-02-15T06:30:35;0.30;;;0.30;;
52166;SDS011;38149;52.666;6.428;2023-02-15T06:33:01;0.30;;;0.30;;
52166;SDS011;38149;52.666;6.428;2023-02-15T06:35:27;0.30;;;0.30;;
52166;SDS011;38149;52.666;6.428;2023-02-15T06:37:53;0.40;;;0.40;;
52166;SDS011;38149;52.666;6.428;2023-02-15T06:40:19;0.30;;;0.30;;
52166;SDS011;38149;52.666;6.428;2023-02-15T06:42:46;0.30;;;0.30;;
52166;SDS011;38149;52.666;6.428;2023-02-15T06:45:12;0.40;;;0.40;;
52166;SDS011;38149;52.666;6.428;2023-02-15T06:47:38;0.30;;;0.30;;
52166;SDS011;38149;52.666;6.428;2023-02-15T06:50:05;0.30;;;0.30;;
52166;SDS011;38149;52.666;6.428;2023-02-15T06:52:32;0.32;;;0.32;;
52166;SDS011;38149;52.666;6.428;2023-02-15T06:54:58;0.30;;;0.30;;
52166;SDS011;38149;52.666;6.428;2023-02-15T06:57:24;0.30;;;0.30;;
52166;SDS011;38149;52.666;6.428;2023-02-15T06:59:50;0.30;;;0.30;;
52166;SDS011;38149;52.666;6.428;2023-02-15T07:02:17;0.30;;;0.30;;
52166;SDS011;38149;52.666;6.428;2023-02-15T07:04:44;0.30;;;0.30;;
52166;SDS011;38149;52.666;6.428;2023-02-15T07:07:10;0.30;;;0.30;;
52166;SDS011;38149;52.666;6.428;2023-02-15T07:09:37;0.30;;;0.30;;
52166;SDS011;38149;52.666;6.428;2023-02-15T07:12:03;0.30;;;0.30;;
52166;SDS011;38149;52.666;6.428;2023-02-15T07:14:48;0.30;;;0.30;;
52166;SDS011;38149;52.666;6.428;2023-02-15T07:17:14;0.30;;;0.30;;
52166;SDS011;38149;52.666;6.428;2023-02-15T07:19:40;0.30;;;0.30;;
52166;SDS011;38149;52.666;6.428;2023-02-15T07:22:07;0.30;;;0.30;;
52166;SDS011;38149;52.666;6.428;2023-02-15T07:24:33;0.30;;;0.30;;
52166;SDS011;38149;52.666;6.428;2023-02-15T07:26:59;0.30;;;0.30;;
52166;SDS011;38149;52.666;6.428;2023-02-15T07:29:25;0.30;;;0.30;;
52166;SDS011;38149;52.666;6.428;2023-02-15T07:31:51;0.30;;;0.30;;
52166;SDS011;38149;52.666;6.428;2023-02-15T07:34:17;0.30;;;0.30;;
52166;SDS011;38149;52.666;6.428;2023-02-15T07:36:43;0.30;;;0.30;;
52166;SDS011;38149;52.666;6.428;2023-02-15T07:39:10;0.30;;;0.30;;
52166;SDS011;38149;52.666;6.428;2023-02-15T07:41:36;0.30;;;0.30;;
52166;SDS011;38149;52.666;6.428;2023-02-15T07:44:03;0.30;;;0.30;;
52166;SDS011;38149;52.666;6.428;2023-02-15T07:46:29;0.30;;;0.30;;
52166;SDS011;38149;52.666;6.428;2023-02-15T07:48:55;0.30;;;0.30;;
52166;SDS011;38149;52.666;6.428;2023-02-15T07:51:21;0.40;;;0.40;;
52166;SDS011;38149;52.666;6.428;2023-02-15T07:53:47;0.30;;;0.30;;
52166;SDS011;38149;52.666;6.428;2023-02-15T07:56:14;0.30;;;0.30;;
52166;SDS011;38149;52.666;6.428;2023-02-15T07:58:40;0.30;;;0.30;;
52166;SDS011;38149;52.666;6.428;2023-02-15T08:03:46;0.35;;;0.35;;
52166;SDS011;38149;52.666;6.428;2023-02-15T08:06:13;0.40;;;0.40;;
52166;SDS011;38149;52.666;6.428;2023-02-15T08:08:39;0.30;;;0.30;;
52166;SDS011;38149;52.666;6.428;2023-02-15T08:14:01;0.30;;;0.30;;
52166;SDS011;38149;52.666;6.428;2023-02-15T08:16:38;0.30;;;0.30;;
52166;SDS011;38149;52.666;6.428;2023-02-15T08:19:10;0.30;;;0.30;;
52166;SDS011;38149;52.666;6.428;2023-02-15T08:21:41;0.30;;;0.30;;
52166;SDS011;38149;52.666;6.428;2023-02-15T08:24:09;0.30;;;0.30;;
52166;SDS011;38149;52.666;6.428;2023-02-15T08:26:37;0.30;;;0.30;;
52166;SDS011;38149;52.666;6.428;2023-02-15T08:29:04;0.30;;;0.30;;
52166;SDS011;38149;52.666;6.428;2023-02-15T08:31:31;0.30;;;0.30;;
52166;SDS011;38149;52.666;6.428;2023-02-15T08:33:58;0.30;;;0.30;;
52166;SDS011;38149;52.666;6.428;2023-02-15T08:36:26;0.30;;;0.30;;
52166;SDS011;38149;52.666;6.428;2023-02-15T08:38:53;0.30;;;0.30;;
52166;SDS011;38149;52.666;6.428;2023-02-15T08:41:25;0.30;;;0.30;;
52166;SDS011;38149;52.666;6.428;2023-02-15T08:43:53;0.30;;;0.30;;
52166;SDS011;38149;52.666;6.428;2023-02-15T08:46:20;0.30;;;0.30;;
52166;SDS011;38149;52.666;6.428;2023-02-15T08:48:49;0.30;;;0.30;;
52166;SDS011;38149;52.666;6.428;2023-02-15T08:51:26;0.30;;;0.30;;
52166;SDS011;38149;52.666;6.428;2023-02-15T08:53:57;0.30;;;0.30;;
52166;SDS011;38149;52.666;6.428;2023-02-15T08:56:25;0.30;;;0.30;;
52166;SDS011;38149;52.666;6.428;2023-02-15T08:58:54;0.30;;;0.30;;
52166;SDS011;38149;52.666;6.428;2023-02-15T09:01:22;0.30;;;0.30;;
52166;SDS011;38149;52.666;6.428;2023-02-15T09:04:03;0.30;;;0.30;;
52166;SDS011;38149;52.666;6.428;2023-02-15T09:06:30;0.30;;;0.30;;
52166;SDS011;38149;52.666;6.428;2023-02-15T09:08:57;0.30;;;0.30;;
52166;SDS011;38149;52.666;6.428;2023-02-15T09:11:24;0.30;;;0.30;;
52166;SDS011;38149;52.666;6.428;2023-02-15T09:13:56;0.30;;;0.30;;
52166;SDS011;38149;52.666;6.428;2023-02-15T09:16:24;0.30;;;0.30;;
52166;SDS011;38149;52.666;6.428;2023-02-15T09:18:52;0.30;;;0.30;;
52166;SDS011;38149;52.666;6.428;2023-02-15T09:21:26;0.30;;;0.30;;
52166;SDS011;38149;52.666;6.428;2023-02-15T09:23:57;0.30;;;0.30;;
52166;SDS011;38149;52.666;6.428;2023-02-15T09:26:25;0.30;;;0.30;;
52166;SDS011;38149;52.666;6.428;2023-02-15T09:28:53;0.30;;;0.30;;
52166;SDS011;38149;52.666;6.428;2023-02-15T09:31:21;0.30;;;0.30;;
52166;SDS011;38149;52.666;6.428;2023-02-15T09:33:49;0.30;;;0.30;;
52166;SDS011;38149;52.666;6.428;2023-02-15T09:36:26;0.30;;;0.30;;
52166;SDS011;38149;52.666;6.428;2023-02-15T09:38:57;0.30;;;0.30;;
52166;SDS011;38149;52.666;6.428;2023-02-15T09:52:46;0.30;;;0.30;;
52166;SDS011;38149;52.666;6.428;2023-02-15T09:58:31;0.30;;;0.30;;
52166;SDS011;38149;52.666;6.428;2023-02-15T10:04:17;0.30;;;0.30;;
52166;SDS011;38149;52.666;6.428;2023-02-15T10:07:08;0.30;;;0.30;;
52166;SDS011;38149;52.666;6.428;2023-02-15T10:24:02;0.30;;;0.30;;
52166;SDS011;38149;52.666;6.428;2023-02-15T10:26:45;0.30;;;0.30;;
52166;SDS011;38149;52.666;6.428;2023-02-15T10:29:16;0.30;;;0.30;;
52166;SDS011;38149;52.666;6.428;2023-02-15T10:32:35;0.30;;;0.30;;
52166;SDS011;38149;52.666;6.428;2023-02-15T10:34:54;0.30;;;0.30;;
52166;SDS011;38149;52.666;6.428;2023-02-15T10:57:18;0.20;;;0.20;;
52166;SDS011;38149;52.666;6.428;2023-02-15T11:02:33;0.20;;;0.20;;
52166;SDS011;38149;52.666;6.428;2023-02-15T11:08:07;0.20;;;0.20;;
52166;SDS011;38149;52.666;6.428;2023-02-15T11:10:39;0.20;;;0.20;;
52166;SDS011;38149;52.666;6.428;2023-02-15T11:13:09;0.20;;;0.20;;
52166;SDS011;38149;52.666;6.428;2023-02-15T11:18:15;0.20;;;0.20;;
52166;SDS011;38149;52.666;6.428;2023-02-15T11:21:01;0.20;;;0.20;;
52166;SDS011;38149;52.666;6.428;2023-02-15T11:23:29;0.20;;;0.20;;
52166;SDS011;38149;52.666;6.428;2023-02-15T11:25:57;0.20;;;0.20;;
52166;SDS011;38149;52.666;6.428;2023-02-15T11:28:27;0.20;;;0.20;;
52166;SDS011;38149;52.666;6.428;2023-02-15T11:31:18;0.30;;;0.30;;
52166;SDS011;38149;52.666;6.428;2023-02-15T11:33:53;0.30;;;0.30;;
52166;SDS011;38149;52.666;6.428;2023-02-15T11:36:26;0.20;;;0.20;;
52166;SDS011;38149;52.666;6.428;2023-02-15T11:39:18;0.20;;;0.20;;
52166;SDS011;38149;52.666;6.428;2023-02-15T11:41:44;0.20;;;0.20;;
52166;SDS011;38149;52.666;6.428;2023-02-15T11:44:27;0.20;;;0.20;;
52166;SDS011;38149;52.666;6.428;2023-02-15T11:47:11;0.20;;;0.20;;
52166;SDS011;38149;52.666;6.428;2023-02-15T11:49:37;0.20;;;0.20;;
52166;SDS011;38149;52.666;6.428;2023-02-15T11:52:07;0.20;;;0.20;;
52166;SDS011;38149;52.666;6.428;2023-02-15T11:54:39;0.20;;;0.20;;
52166;SDS011;38149;52.666;6.428;2023-02-15T12:02:50;0.20;;;0.20;;
52166;SDS011;38149;52.666;6.428;2023-02-15T12:05:19;0.20;;;0.20;;
52166;SDS011;38149;52.666;6.428;2023-02-15T12:07:49;0.20;;;0.20;;
52166;SDS011;38149;52.666;6.428;2023-02-15T12:12:47;0.20;;;0.20;;
52166;SDS011;38149;52.666;6.428;2023-02-15T12:15:13;0.20;;;0.20;;
52166;SDS011;38149;52.666;6.428;2023-02-15T12:17:52;0.20;;;0.20;;
52166;SDS011;38149;52.666;6.428;2023-02-15T12:23:05;0.20;;;0.20;;
52166;SDS011;38149;52.666;6.428;2023-02-15T12:25:58;0.20;;;0.20;;
52166;SDS011;38149;52.666;6.428;2023-02-15T12:28:25;0.20;;;0.20;;
52166;SDS011;38149;52.666;6.428;2023-02-15T12:30:55;0.20;;;0.20;;
52166;SDS011;38149;52.666;6.428;2023-02-15T12:44:38;0.20;;;0.20;;
52166;SDS011;38149;52.666;6.428;2023-02-15T12:47:05;0.20;;;0.20;;
52166;SDS011;38149;52.666;6.428;2023-02-15T12:49:40;0.20;;;0.20;;
52166;SDS011;38149;52.666;6.428;2023-02-15T12:54:45;0.20;;;0.20;;
52166;SDS011;38149;52.666;6.428;2023-02-15T12:59:58;0.20;;;0.20;;
52166;SDS011;38149;52.666;6.428;2023-02-15T13:05:05;0.20;;;0.20;;
52166;SDS011;38149;52.666;6.428;2023-02-15T13:07:50;0.20;;;0.20;;
52166;SDS011;38149;52.666;6.428;2023-02-15T13:10:29;0.20;;;0.20;;
52166;SDS011;38149;52.666;6.428;2023-02-15T13:12:59;0.20;;;0.20;;
52166;SDS011;38149;52.666;6.428;2023-02-15T13:15:33;0.20;;;0.20;;
52166;SDS011;38149;52.666;6.428;2023-02-15T13:18:01;0.20;;;0.20;;
52166;SDS011;38149;52.666;6.428;2023-02-15T13:20:29;0.20;;;0.20;;
52166;SDS011;38149;52.666;6.428;2023-02-15T13:22:57;0.20;;;0.20;;
52166;SDS011;38149;52.666;6.428;2023-02-15T13:25:28;0.20;;;0.20;;
52166;SDS011;38149;52.666;6.428;2023-02-15T13:28:00;0.20;;;0.20;;
52166;SDS011;38149;52.666;6.428;2023-02-15T13:30:29;0.10;;;0.10;;
52166;SDS011;38149;52.666;6.428;2023-02-15T13:33:01;0.20;;;0.20;;
52166;SDS011;38149;52.666;6.428;2023-02-15T13:41:09;0.10;;;0.10;;
52166;SDS011;38149;52.666;6.428;2023-02-15T13:51:59;0.17;;;0.17;;
52166;SDS011;38149;52.666;6.428;2023-02-15T14:00:29;0.20;;;0.20;;
52166;SDS011;38149;52.666;6.428;2023-02-15T14:06:20;0.10;;;0.10;;
52166;SDS011;38149;52.666;6.428;2023-02-15T14:26:27;0.20;;;0.20;;
52166;SDS011;38149;52.666;6.428;2023-02-15T14:29:28;0.20;;;0.20;;
52166;SDS011;38149;52.666;6.428;2023-02-15T14:32:08;0.10;;;0.10;;
52166;SDS011;38149;52.666;6.428;2023-02-15T14:37:16;0.20;;;0.20;;
52166;SDS011;38149;52.666;6.428;2023-02-15T14:45:55;0.20;;;0.20;;
52166;SDS011;38149;52.666;6.428;2023-02-15T14:48:29;0.20;;;0.20;;
52166;SDS011;38149;52.666;6.428;2023-02-15T14:50:57;0.20;;;0.20;;
52166;SDS011;38149;52.666;6.428;2023-02-15T14:56:05;0.20;;;0.20;;
52166;SDS011;38149;52.666;6.428;2023-02-15T14:59:28;0.10;;;0.10;;
52166;SDS011;38149;52.666;6.428;2023-02-15T15:01:42;0.20;;;0.20;;
52166;SDS011;38149;52.666;6.428;2023-02-15T15:04:31;0.10;;;0.10;;
52166;SDS011;38149;52.666;6.428;2023-02-15T15:14:57;0.17;;;0.17;;
52166;SDS011;38149;52.666;6.428;2023-02-15T15:20:00;0.10;;;0.10;;
52166;SDS011;38149;52.666;6.428;2023-02-15T15:22:38;0.10;;;0.10;;
52166;SDS011;38149;52.666;6.428;2023-02-15T15:30:46;0.20;;;0.20;;
52166;SDS011;38149;52.666;6.428;2023-02-15T15:32:59;0.20;;;0.20;;
52166;SDS011;38149;52.666;6.428;2023-02-15T15:49:44;0.20;;;0.20;;
52166;SDS011;38149;52.666;6.428;2023-02-15T15:52:13;0.20;;;0.20;;
52166;SDS011;38149;52.666;6.428;2023-02-15T15:54:45;0.20;;;0.20;;
52166;SDS011;38149;52.666;6.428;2023-02-15T15:57:32;0.20;;;0.20;;
52166;SDS011;38149;52.666;6.428;2023-02-15T16:00:00;0.20;;;0.20;;
52166;SDS011;38149;52.666;6.428;2023-02-15T16:02:27;0.20;;;0.20;;
52166;SDS011;38149;52.666;6.428;2023-02-15T16:04:53;0.20;;;0.20;;
52166;SDS011;38149;52.666;6.428;2023-02-15T16:09:58;0.10;;;0.10;;
52166;SDS011;38149;52.666;6.428;2023-02-15T16:12:27;0.20;;;0.20;;
52166;SDS011;38149;52.666;6.428;2023-02-15T16:14:55;0.20;;;0.20;;
52166;SDS011;38149;52.666;6.428;2023-02-15T16:17:25;0.17;;;0.17;;
52166;SDS011;38149;52.666;6.428;2023-02-15T16:20:02;0.20;;;0.20;;
52166;SDS011;38149;52.666;6.428;2023-02-15T16:23:08;0.10;;;0.10;;
52166;SDS011;38149;52.666;6.428;2023-02-15T16:25:51;0.20;;;0.20;;
52166;SDS011;38149;52.666;6.428;2023-02-15T16:28:20;0.20;;;0.20;;
52166;SDS011;38149;52.666;6.428;2023-02-15T16:30:54;0.10;;;0.10;;
52166;SDS011;38149;52.666;6.428;2023-02-15T16:33:34;0.10;;;0.10;;
52166;SDS011;38149;52.666;6.428;2023-02-15T16:36:02;0.20;;;0.20;;
52166;SDS011;38149;52.666;6.428;2023-02-15T16:41:11;0.20;;;0.20;;
52166;SDS011;38149;52.666;6.428;2023-02-15T16:43:39;0.10;;;0.10;;
52166;SDS011;38149;52.666;6.428;2023-02-15T16:46:10;0.10;;;0.10;;
52166;SDS011;38149;52.666;6.428;2023-02-15T16:48:39;0.10;;;0.10;;
52166;SDS011;38149;52.666;6.428;2023-02-15T16:51:08;0.10;;;0.10;;
52166;SDS011;38149;52.666;6.428;2023-02-15T16:53:35;0.20;;;0.20;;
52166;SDS011;38149;52.666;6.428;2023-02-15T16:56:03;0.20;;;0.20;;
52166;SDS011;38149;52.666;6.428;2023-02-15T16:58:41;0.20;;;0.20;;
52166;SDS011;38149;52.666;6.428;2023-02-15T17:01:10;0.20;;;0.20;;
52166;SDS011;38149;52.666;6.428;2023-02-15T17:03:38;0.20;;;0.20;;
52166;SDS011;38149;52.666;6.428;2023-02-15T17:06:16;0.10;;;0.10;;
52166;SDS011;38149;52.666;6.428;2023-02-15T17:08:46;0.20;;;0.20;;
52166;SDS011;38149;52.666;6.428;2023-02-15T17:11:16;0.15;;;0.15;;
52166;SDS011;38149;52.666;6.428;2023-02-15T17:16:40;0.20;;;0.20;;
52166;SDS011;38149;52.666;6.428;2023-02-15T17:21:53;0.10;;;0.10;;
52166;SDS011;38149;52.666;6.428;2023-02-15T17:24:22;0.10;;;0.10;;
52166;SDS011;38149;52.666;6.428;2023-02-15T17:26:54;0.10;;;0.10;;
52166;SDS011;38149;52.666;6.428;2023-02-15T17:31:54;0.10;;;0.10;;
52166;SDS011;38149;52.666;6.428;2023-02-15T17:40:21;0.10;;;0.10;;
52166;SDS011;38149;52.666;6.428;2023-02-15T17:42:49;0.20;;;0.20;;
52166;SDS011;38149;52.666;6.428;2023-02-15T17:45:16;0.20;;;0.20;;
52166;SDS011;38149;52.666;6.428;2023-02-15T17:47:42;0.20;;;0.20;;
52166;SDS011;38149;52.666;6.428;2023-02-15T17:50:15;0.20;;;0.20;;
52166;SDS011;38149;52.666;6.428;2023-02-15T17:52:51;0.10;;;0.10;;
52166;SDS011;38149;52.666;6.428;2023-02-15T17:55:19;0.15;;;0.15;;
52166;SDS011;38149;52.666;6.428;2023-02-15T17:58:03;0.10;;;0.10;;
52166;SDS011;38149;52.666;6.428;2023-02-15T18:00:32;0.10;;;0.10;;
52166;SDS011;38149;52.666;6.428;2023-02-15T18:03:26;0.20;;;0.20;;
52166;SDS011;38149;52.666;6.428;2023-02-15T18:06:23;0.20;;;0.20;;
52166;SDS011;38149;52.666;6.428;2023-02-15T18:09:18;0.10;;;0.10;;
52166;SDS011;38149;52.666;6.428;2023-02-15T18:12:12;0.10;;;0.10;;
52166;SDS011;38149;52.666;6.428;2023-02-15T18:14:43;0.20;;;0.20;;
52166;SDS011;38149;52.666;6.428;2023-02-15T18:17:10;0.20;;;0.20;;
52166;SDS011;38149;52.666;6.428;2023-02-15T18:19:37;0.20;;;0.20;;
52166;SDS011;38149;52.666;6.428;2023-02-15T18:22:10;0.20;;;0.20;;
52166;SDS011;38149;52.666;6.428;2023-02-15T18:24:37;0.20;;;0.20;;
52166;SDS011;38149;52.666;6.428;2023-02-15T18:27:03;0.10;;;0.10;;
52166;SDS011;38149;52.666;6.428;2023-02-15T18:29:30;0.10;;;0.10;;
52166;SDS011;38149;52.666;6.428;2023-02-15T18:31:56;0.20;;;0.20;;
52166;SDS011;38149;52.666;6.428;2023-02-15T18:34:28;0.20;;;0.20;;
52166;SDS011;38149;52.666;6.428;2023-02-15T18:39:36;0.20;;;0.20;;
52166;SDS011;38149;52.666;6.428;2023-02-15T18:42:04;0.10;;;0.10;;
52166;SDS011;38149;52.666;6.428;2023-02-15T18:44:31;0.10;;;0.10;;
52166;SDS011;38149;52.666;6.428;2023-02-15T18:46:57;0.10;;;0.10;;
52166;SDS011;38149;52.666;6.428;2023-02-15T18:49:23;0.10;;;0.10;;
52166;SDS011;38149;52.666;6.428;2023-02-15T18:51:50;0.20;;;0.20;;
52166;SDS011;38149;52.666;6.428;2023-02-15T18:54:23;0.20;;;0.20;;
52166;SDS011;38149;52.666;6.428;2023-02-15T18:56:51;0.20;;;0.20;;
52166;SDS011;38149;52.666;6.428;2023-02-15T18:59:19;0.20;;;0.20;;
52166;SDS011;38149;52.666;6.428;2023-02-15T19:01:46;0.20;;;0.20;;